Sumifukumaru No.5 — JD3058 — position and weather

sailwx.info

Track history (hours):
 
Tides and Currents Weather Stations Pressure Air Temp Water Temp Dewpoint Dewpoint Depression Visibility Wind Speed Wind Dir Waves Ship Positions

Sumifukumaru No.5

Last reported at 2017-Mar-21 09:25 UTC. Time now 2017-Mar-27 14:23 UTC.
Position N 33°39' E 132°15'.

Length 75 m; draft 4.4 m.

Type: Cargo ship. MMSI: 431001371.

Date/timePositionNaut miles runAvg speedWind from/ knotsBaromVisibWave heightAir tempDewpointWater temp
2017-Mar-21 09:25N 33°39' E 132°15'1111.9
2017-Mar-21 08:30N 33°45' E 132°25'1111.7
2017-Mar-21 07:33N 33°53' E 132°35'341 9.7
2017-Mar-19 20:33N 34°57' E 139°21'1211.7
2017-Mar-19 19:32N 35°03' E 139°34'1211.6
2017-Mar-19 18:33N 35°11' E 139°44'1010.5
2017-Mar-19 17:33N 35°21' E 139°42'6 6.3
2017-Mar-19 16:32N 35°22' E 139°50'1 0.2
2017-Mar-19 09:22N 35°21' E 139°51'0 0.0
2017-Mar-19 06:19N 35°21' E 139°51'0 0.0
2017-Mar-19 00:31N 35°21' E 139°51'0 0.0
2017-Mar-18 23:31N 35°21' E 139°51'0 0.0
2017-Mar-18 22:28N 35°21' E 139°51'0 0.0
2017-Mar-18 21:31N 35°21' E 139°51'0 0.0
2017-Mar-18 20:31N 35°21' E 139°51'0 0.0
2017-Mar-18 19:28N 35°21' E 139°51'0 0.0
2017-Mar-18 18:28N 35°21' E 139°51'0 0.0
2017-Mar-18 17:28N 35°21' E 139°51'0 0.0
2017-Mar-18 16:31N 35°21' E 139°51'0 0.0
2017-Mar-18 15:22N 35°21' E 139°51'0 0.0
2017-Mar-18 14:31N 35°21' E 139°51'0 0.0
2017-Mar-18 13:22N 35°21' E 139°51'0 0.0
2017-Mar-18 12:28N 35°21' E 139°51'0 0.0
2017-Mar-18 11:10N 35°21' E 139°51'0 0.0
2017-Mar-18 10:28N 35°21' E 139°51'0 0.0
2017-Mar-18 09:25N 35°21' E 139°51'0 0.0
2017-Mar-18 08:22N 35°21' E 139°51'0 0.0
2017-Mar-18 07:31N 35°21' E 139°51'0 0.0
2017-Mar-18 06:28N 35°21' E 139°51'0 0.0
2017-Mar-18 05:28N 35°21' E 139°51'0 0.0
2017-Mar-18 04:28N 35°21' E 139°51'0 0.0
2017-Mar-18 03:27N 35°21' E 139°51'0 0.0
2017-Mar-18 02:33N 35°21' E 139°51'0 0.0
2017-Mar-18 01:34N 35°21' E 139°51'0 0.0
2017-Mar-18 00:33N 35°21' E 139°51'0 0.0
2017-Mar-17 23:34N 35°21' E 139°51'1 0.4
2017-Mar-17 22:14N 35°21' E 139°51'0 0.1
2017-Mar-17 21:29N 35°21' E 139°51'0 0.1
2017-Mar-17 20:34N 35°21' E 139°51'17 2.4
2017-Mar-17 13:29N 35°37' E 139°58'6 1.1
2017-Mar-17 08:04N 35°32' E 139°54'611.9
2017-Mar-17 07:33N 35°27' E 139°50'1110.9
2017-Mar-17 06:34N 35°17' E 139°46'1110.9
2017-Mar-17 05:33N 35°06' E 139°45'  
2017-Mar-14 17:26N 34°33' E 134°48'1011.3
2017-Mar-14 16:32N 34°37' E 134°59'1111.6
2017-Mar-14 15:33N 34°36' E 135°13'1211.6
2017-Mar-14 14:32N 34°34' E 135°27'0 0.0
2017-Mar-14 09:07N 34°34' E 135°27'0 0.4
2017-Mar-14 08:16N 34°34' E 135°27'0 0.7
2017-Mar-14 07:33N 34°35' E 135°27'1110.6
2017-Mar-14 06:33N 34°35' E 135°14'  
Track history (hours):
 
Tides and Currents Weather Stations Pressure Air Temp Water Temp Dewpoint Dewpoint Depression Visibility Wind Speed Wind Dir Waves Ship Positions

Sumifukumaru No.5

Last reported at 2017-Mar-21 09:25 UTC. Time now 2017-Mar-27 14:23 UTC.
Position N 33°39' E 132°15'.

Length 75 m; draft 4.4 m.

Type: Cargo ship. MMSI: 431001371.

Date/timePositionNaut miles runAvg speedWind from/ knotsBaromVisibWave heightAir tempDewpointWater temp
2017-Mar-21 09:25N 33°39' E 132°15'1111.9
2017-Mar-21 08:30N 33°45' E 132°25'1111.7
2017-Mar-21 07:33N 33°53' E 132°35'341 9.7
2017-Mar-19 20:33N 34°57' E 139°21'1211.7
2017-Mar-19 19:32N 35°03' E 139°34'1211.6
2017-Mar-19 18:33N 35°11' E 139°44'1010.5
2017-Mar-19 17:33N 35°21' E 139°42'6 6.3
2017-Mar-19 16:32N 35°22' E 139°50'1 0.2
2017-Mar-19 09:22N 35°21' E 139°51'0 0.0
2017-Mar-19 06:19N 35°21' E 139°51'0 0.0
2017-Mar-19 00:31N 35°21' E 139°51'0 0.0
2017-Mar-18 23:31N 35°21' E 139°51'0 0.0
2017-Mar-18 22:28N 35°21' E 139°51'0 0.0
2017-Mar-18 21:31N 35°21' E 139°51'0 0.0
2017-Mar-18 20:31N 35°21' E 139°51'0 0.0
2017-Mar-18 19:28N 35°21' E 139°51'0 0.0
2017-Mar-18 18:28N 35°21' E 139°51'0 0.0
2017-Mar-18 17:28N 35°21' E 139°51'0 0.0
2017-Mar-18 16:31N 35°21' E 139°51'0 0.0
2017-Mar-18 15:22N 35°21' E 139°51'0 0.0
2017-Mar-18 14:31N 35°21' E 139°51'0 0.0
2017-Mar-18 13:22N 35°21' E 139°51'0 0.0
2017-Mar-18 12:28N 35°21' E 139°51'0 0.0
2017-Mar-18 11:10N 35°21' E 139°51'0 0.0
2017-Mar-18 10:28N 35°21' E 139°51'0 0.0
2017-Mar-18 09:25N 35°21' E 139°51'0 0.0
2017-Mar-18 08:22N 35°21' E 139°51'0 0.0
2017-Mar-18 07:31N 35°21' E 139°51'0 0.0
2017-Mar-18 06:28N 35°21' E 139°51'0 0.0
2017-Mar-18 05:28N 35°21' E 139°51'0 0.0
2017-Mar-18 04:28N 35°21' E 139°51'0 0.0
2017-Mar-18 03:27N 35°21' E 139°51'0 0.0
2017-Mar-18 02:33N 35°21' E 139°51'0 0.0
2017-Mar-18 01:34N 35°21' E 139°51'0 0.0
2017-Mar-18 00:33N 35°21' E 139°51'0 0.0
2017-Mar-17 23:34N 35°21' E 139°51'1 0.4
2017-Mar-17 22:14N 35°21' E 139°51'0 0.1
2017-Mar-17 21:29N 35°21' E 139°51'0 0.1
2017-Mar-17 20:34N 35°21' E 139°51'17 2.4
2017-Mar-17 13:29N 35°37' E 139°58'6 1.1
2017-Mar-17 08:04N 35°32' E 139°54'611.9
2017-Mar-17 07:33N 35°27' E 139°50'1110.9
2017-Mar-17 06:34N 35°17' E 139°46'1110.9
2017-Mar-17 05:33N 35°06' E 139°45'  
2017-Mar-14 17:26N 34°33' E 134°48'1011.3
2017-Mar-14 16:32N 34°37' E 134°59'1111.6
2017-Mar-14 15:33N 34°36' E 135°13'1211.6
2017-Mar-14 14:32N 34°34' E 135°27'0 0.0
2017-Mar-14 09:07N 34°34' E 135°27'0 0.4
2017-Mar-14 08:16N 34°34' E 135°27'0 0.7
2017-Mar-14 07:33N 34°35' E 135°27'1110.6
2017-Mar-14 06:33N 34°35' E 135°14'  

Dump ship's entire track history